Time;durP1;ratioP1;P1;durP2;ratioP2;P2;SDS_P1;SDS_P2;PMS_P1;PMS_P2;Temp;Humidity;BMP_temperature;BMP_pressure;BME280_temperature;BME280_humidity;BME280_pressure;Samples;Min_cycle;Max_cycle;Signal;HPM_P1;HPM_P2
2023/07/05 00:00:16;;;;;;;3.30;2.40;;;;;;;20.27;65.27;99069.06;4948880;28;20570;-81
2023/07/05 00:02:42;;;;;;;4.37;2.40;;;;;;;20.27;65.44;99072.56;4948403;28;20237;-80
2023/07/05 00:05:08;;;;;;;2.80;2.20;;;;;;;20.21;65.50;99081.28;4950986;28;20722;-80
2023/07/05 00:07:33;;;;;;;3.20;2.50;;;;;;;20.17;65.88;99081.78;4950354;28;20238;-80
2023/07/05 00:09:59;;;;;;;5.97;2.50;;;;;;;20.13;66.13;99080.47;4950732;28;20235;-80
2023/07/05 00:12:26;;;;;;;4.33;2.53;;;;;;;20.01;66.60;99077.31;4950456;28;20443;-80
2023/07/05 00:14:51;;;;;;;5.40;2.97;;;;;;;19.89;67.13;99079.53;4949803;28;20239;-80
2023/07/05 00:17:17;;;;;;;3.80;2.10;;;;;;;19.78;67.60;99080.72;4951145;28;20488;-80
2023/07/05 00:19:42;;;;;;;2.23;2.00;;;;;;;19.79;67.53;99082.38;4951148;28;20238;-80
2023/07/05 00:22:08;;;;;;;3.27;2.53;;;;;;;19.86;67.23;99086.03;4951543;28;20434;-80
2023/07/05 00:24:34;;;;;;;2.90;2.70;;;;;;;19.91;67.13;99074.88;4950158;28;20233;-79
2023/07/05 00:26:59;;;;;;;4.00;2.50;;;;;;;19.95;67.12;99068.19;4934916;29;20237;-80
2023/07/05 00:29:26;;;;;;;2.83;2.13;;;;;;;20.01;67.07;99086.19;4934872;28;20444;-80
2023/07/05 00:31:54;;;;;;;2.60;2.00;;;;;;;20.07;67.29;99098.81;4933993;28;20505;-82
2023/07/05 00:34:20;;;;;;;2.80;2.50;;;;;;;20.11;67.52;99085.97;4949716;28;20468;-82
2023/07/05 00:36:45;;;;;;;5.73;3.37;;;;;;;20.05;67.92;99100.81;4951158;28;20903;-82
2023/07/05 00:39:10;;;;;;;5.93;1.93;;;;;;;19.98;68.03;99091.84;4932682;28;20239;-80
2023/07/05 00:41:36;;;;;;;2.40;2.20;;;;;;;19.91;68.33;99096.19;4935900;28;20228;-80
2023/07/05 00:44:02;;;;;;;3.27;1.80;;;;;;;19.84;68.57;99095.19;4949001;28;20227;-79
2023/07/05 00:46:31;;;;;;;4.70;3.00;;;;;;;19.78;68.93;99106.53;4932532;28;20232;-82
2023/07/05 00:49:05;;;;;;;6.17;3.60;;;;;;;19.75;68.93;99110.38;4943178;28;20225;-82
2023/07/05 00:51:56;;;;;;;5.93;3.10;;;;;;;19.75;69.20;99114.88;4949756;28;20471;-80
2023/07/05 00:54:26;;;;;;;3.30;2.40;;;;;;;19.74;69.15;99103.41;4948009;28;20466;-81
2023/07/05 00:57:11;;;;;;;4.87;2.30;;;;;;;19.77;69.16;99104.88;4931773;28;20557;-81
2023/07/05 00:59:46;;;;;;;3.57;2.07;;;;;;;19.83;69.08;99107.69;4947304;28;20939;-80
2023/07/05 01:02:14;;;;;;;3.70;2.63;;;;;;;19.93;69.10;99099.53;4942565;28;20467;-80
2023/07/05 01:04:40;;;;;;;3.13;2.30;;;;;;;19.99;69.05;99096.19;4948367;28;20493;-80
2023/07/05 01:07:06;;;;;;;2.50;2.30;;;;;;;20.05;68.88;99094.66;4930067;28;20535;-81
2023/07/05 01:09:32;;;;;;;4.07;2.30;;;;;;;20.09;68.93;99091.47;4947540;28;20720;-80
2023/07/05 01:12:12;;;;;;;2.20;2.00;;;;;;;20.13;69.02;99099.13;4948302;28;20568;-80
2023/07/05 01:15:02;;;;;;;4.53;2.50;;;;;;;20.19;69.07;99088.59;4931765;28;20230;-82
2023/07/05 01:17:44;;;;;;;3.87;2.53;;;;;;;20.24;69.25;99096.09;4932424;28;20541;-82
2023/07/05 01:20:16;;;;;;;3.20;2.27;;;;;;;20.24;69.16;99091.59;4931039;28;20488;-82
2023/07/05 01:22:41;;;;;;;3.00;1.93;;;;;;;20.28;69.38;99092.06;4948513;28;20477;-82
2023/07/05 01:25:19;;;;;;;2.50;2.30;;;;;;;20.33;69.26;99095.06;4948490;28;20481;-83
2023/07/05 01:28:06;;;;;;;2.37;1.83;;;;;;;20.40;69.08;99101.38;4932206;29;20237;-80
2023/07/05 01:30:59;;;;;;;2.13;1.70;;;;;;;20.46;68.73;99106.00;4946155;28;20472;-80
2023/07/05 01:33:42;;;;;;;2.30;2.10;;;;;;;20.50;68.42;99110.00;4961211;23;20535;-75
2023/07/05 01:36:11;;;;;;;3.00;2.00;;;;;;;20.55;68.31;99107.69;4903333;29;20513;-77
2023/07/05 01:38:37;;;;;;;3.07;1.67;;;;;;;20.60;68.17;99114.31;4931614;29;20884;-75
2023/07/05 01:41:05;;;;;;;3.10;1.60;;;;;;;20.63;67.91;99121.97;4914654;29;20480;-75
2023/07/05 01:43:38;;;;;;;6.20;2.23;;;;;;;20.66;67.79;99121.66;4923997;29;20484;-78
2023/07/05 01:46:26;;;;;;;1.63;1.40;;;;;;;20.69;67.72;99119.44;4904406;29;20491;-77
2023/07/05 01:49:09;;;;;;;2.70;1.80;;;;;;;20.71;67.62;99116.59;4925534;29;20584;-77
2023/07/05 01:51:50;;;;;;;3.13;1.90;;;;;;;20.71;67.56;99114.78;4923951;29;20504;-76
2023/07/05 01:54:39;;;;;;;2.13;1.70;;;;;;;20.72;67.38;99105.75;4920075;29;21047;-77
2023/07/05 01:57:20;;;;;;;5.30;2.83;;;;;;;20.76;67.40;99116.91;4915835;29;20481;-76
2023/07/05 02:00:16;;;;;;;4.13;3.13;;;;;;;20.76;67.57;99122.22;4900480;29;21089;-77
2023/07/05 02:02:55;;;;;;;4.10;2.37;;;;;;;20.75;67.40;99121.41;4900027;29;21471;-77
2023/07/05 02:05:22;;;;;;;4.68;2.30;;;;;;;20.75;67.65;99124.06;4902848;29;20469;-76
2023/07/05 02:07:48;;;;;;;2.73;2.13;;;;;;;20.74;67.71;99116.25;4924345;29;20447;-77
2023/07/05 02:10:14;;;;;;;2.60;1.50;;;;;;;20.71;67.92;99116.59;4921649;29;20488;-77
2023/07/05 02:12:40;;;;;;;2.47;1.50;;;;;;;20.68;67.94;99108.94;4918647;29;20260;-77
2023/07/05 02:15:06;;;;;;;1.93;1.47;;;;;;;20.62;68.14;99118.47;4903147;29;20486;-76
2023/07/05 02:17:32;;;;;;;2.20;2.00;;;;;;;20.60;68.65;99108.97;4903039;29;20477;-76
2023/07/05 02:19:57;;;;;;;2.90;2.57;;;;;;;20.55;68.57;99115.69;4902878;29;20988;-76
2023/07/05 02:22:22;;;;;;;2.10;1.83;;;;;;;20.47;68.93;99112.19;4902212;29;20236;-76
2023/07/05 02:24:52;;;;;;;2.33;1.80;;;;;;;20.43;68.91;99108.19;4919314;29;20244;-75
2023/07/05 02:27:18;;;;;;;3.87;2.20;;;;;;;20.39;69.11;99094.38;4920150;29;20217;-77
2023/07/05 02:29:43;;;;;;;4.10;1.97;;;;;;;20.37;69.13;99096.38;4919352;29;20492;-75
2023/07/05 02:32:09;;;;;;;2.20;2.00;;;;;;;20.37;69.31;99095.56;4898296;29;20597;-77
2023/07/05 02:34:40;;;;;;;2.20;1.90;;;;;;;20.39;69.88;99097.06;4920724;29;20466;-76
2023/07/05 02:37:06;;;;;;;4.20;1.73;;;;;;;20.43;69.78;99095.69;4920332;29;20856;-76
2023/07/05 02:39:31;;;;;;;2.17;1.60;;;;;;;20.47;69.72;99091.69;4920107;29;20771;-76
2023/07/05 02:41:57;;;;;;;2.03;1.83;;;;;;;20.48;69.63;99100.50;4918791;29;20748;-77
2023/07/05 02:44:22;;;;;;;3.13;2.10;;;;;;;20.46;69.45;99106.00;4919460;29;20233;-77
2023/07/05 02:46:47;;;;;;;2.63;1.70;;;;;;;20.47;69.77;99099.69;4918592;29;20237;-77
2023/07/05 02:49:13;;;;;;;1.70;1.47;;;;;;;20.47;69.59;99099.69;4919655;29;20215;-77
2023/07/05 02:51:38;;;;;;;2.47;1.70;;;;;;;20.48;69.69;99096.00;4922136;29;20749;-77
2023/07/05 02:54:04;;;;;;;2.20;1.60;;;;;;;20.48;69.51;99096.00;4923724;29;20224;-79
2023/07/05 02:56:29;;;;;;;3.80;2.30;;;;;;;20.44;69.40;99088.50;4919408;29;20289;-77
2023/07/05 02:58:54;;;;;;;1.70;1.60;;;;;;;20.39;69.55;99078.38;4901582;29;20228;-77
2023/07/05 03:01:20;;;;;;;2.80;1.97;;;;;;;20.33;69.62;99085.25;4918911;29;20582;-77
2023/07/05 03:03:46;;;;;;;5.40;1.60;;;;;;;20.26;69.80;99081.59;4896734;29;20252;-77
2023/07/05 03:06:11;;;;;;;4.47;2.30;;;;;;;20.25;70.28;99082.59;4917038;29;20479;-76
2023/07/05 03:08:38;;;;;;;1.60;1.50;;;;;;;20.25;70.11;99089.75;4903930;29;20242;-76
2023/07/05 03:11:03;;;;;;;1.97;1.73;;;;;;;20.22;70.14;99092.75;4920308;29;20566;-77
2023/07/05 03:13:31;;;;;;;2.87;1.83;;;;;;;20.22;70.06;99090.09;4906449;29;20463;-76
2023/07/05 03:15:57;;;;;;;3.30;2.00;;;;;;;20.21;69.98;99088.44;4903763;29;20248;-77
2023/07/05 03:18:23;;;;;;;2.60;1.60;;;;;;;20.18;69.94;99097.63;4923227;29;20851;-77
2023/07/05 03:20:49;;;;;;;2.00;1.80;;;;;;;20.16;70.03;99090.78;4906569;29;20464;-77
2023/07/05 03:23:16;;;;;;;2.10;1.70;;;;;;;20.11;70.09;99094.78;4898901;29;20490;-76
2023/07/05 03:25:52;;;;;;;2.50;1.83;;;;;;;20.13;70.02;99091.97;4923052;29;20239;-76
2023/07/05 03:28:18;;;;;;;3.30;1.90;;;;;;;20.13;70.11;99091.97;4921973;29;20495;-78
2023/07/05 03:30:43;;;;;;;3.70;1.80;;;;;;;20.15;69.94;99094.47;4906214;29;20480;-77
2023/07/05 03:33:09;;;;;;;1.83;1.70;;;;;;;20.14;69.77;99088.28;4904550;29;20245;-77
2023/07/05 03:35:34;;;;;;;2.33;1.90;;;;;;;20.11;69.63;99089.47;4900820;29;20307;-76
2023/07/05 03:38:00;;;;;;;2.23;1.60;;;;;;;20.11;69.49;99086.78;4922487;29;20748;-76
2023/07/05 03:40:25;;;;;;;2.37;2.07;;;;;;;20.11;69.15;99083.28;4921364;29;20306;-76
2023/07/05 03:42:52;;;;;;;2.80;2.10;;;;;;;20.10;69.00;99093.13;4922318;29;20241;-77
2023/07/05 03:45:18;;;;;;;2.60;1.87;;;;;;;20.11;68.24;99086.78;4921494;29;20524;-78
2023/07/05 03:47:43;;;;;;;2.43;2.10;;;;;;;20.12;68.17;99090.31;4921812;29;20315;-77
2023/07/05 03:50:09;;;;;;;5.77;2.60;;;;;;;20.15;67.89;99089.13;4922113;29;20382;-77
2023/07/05 03:52:35;;;;;;;5.50;2.63;;;;;;;20.18;67.69;99080.78;4921721;29;20612;-77
2023/07/05 03:55:00;;;;;;;2.90;2.50;;;;;;;20.21;67.27;99085.78;4920532;29;20261;-76
2023/07/05 03:57:26;;;;;;;3.83;1.93;;;;;;;20.24;66.87;99080.09;4921826;29;20476;-77
2023/07/05 03:59:51;;;;;;;4.03;2.10;;;;;;;20.28;66.58;99081.41;4921514;29;20314;-76
2023/07/05 04:02:17;;;;;;;3.17;1.63;;;;;;;20.33;66.31;99079.03;4921032;29;20317;-76
2023/07/05 04:04:44;;;;;;;1.80;1.63;;;;;;;20.36;66.02;99086.72;4922083;29;20229;-75
2023/07/05 04:07:10;;;;;;;2.13;1.93;;;;;;;20.40;65.82;99087.19;4921555;29;20695;-78
2023/07/05 04:09:35;;;;;;;2.40;2.03;;;;;;;20.44;65.72;99085.84;4921298;29;20460;-77
2023/07/05 04:12:00;;;;;;;3.17;1.90;;;;;;;20.46;65.65;99090.00;4921773;29;20675;-75
2023/07/05 04:14:26;;;;;;;4.00;2.77;;;;;;;20.52;65.43;99088.47;4922862;29;20224;-77
2023/07/05 04:16:51;;;;;;;3.87;2.10;;;;;;;20.54;65.25;99084.66;4921536;29;20226;-76
2023/07/05 04:19:17;;;;;;;2.47;1.67;;;;;;;20.62;65.01;99088.28;4921270;29;20780;-77
2023/07/05 04:21:42;;;;;;;3.63;2.03;;;;;;;20.66;64.84;99089.63;4919823;29;20233;-77
2023/07/05 04:24:08;;;;;;;3.50;2.47;;;;;;;20.72;64.62;99094.25;4921146;29;20668;-76
2023/07/05 04:26:33;;;;;;;4.27;1.90;;;;;;;20.76;64.25;99098.22;4921849;29;20235;-77
2023/07/05 04:28:58;;;;;;;2.13;2.00;;;;;;;20.82;63.95;99094.88;4921784;29;20268;-75
2023/07/05 04:31:30;;;;;;;2.70;1.93;;;;;;;20.89;63.58;99102.97;4903155;29;20801;-76
2023/07/05 04:33:57;;;;;;;3.47;2.13;;;;;;;20.91;63.43;99112.47;4940916;29;20647;-77
2023/07/05 04:36:24;;;;;;;3.53;2.23;;;;;;;20.94;63.02;99104.13;4941210;29;20469;-77
2023/07/05 04:38:49;;;;;;;2.43;1.97;;;;;;;20.96;63.18;99110.13;4939662;29;20550;-77
2023/07/05 04:41:15;;;;;;;3.50;1.60;;;;;;;21.02;62.88;99111.25;4941164;29;20471;-77
2023/07/05 04:43:40;;;;;;;2.83;2.00;;;;;;;21.05;62.57;99121.56;4942258;29;20239;-76
2023/07/05 04:46:06;;;;;;;2.63;2.10;;;;;;;21.09;62.30;99127.38;4941098;29;20561;-75
2023/07/05 04:48:31;;;;;;;2.23;1.70;;;;;;;21.09;62.18;99127.38;4941702;29;20246;-75
2023/07/05 04:50:57;;;;;;;2.53;1.80;;;;;;;21.12;62.11;99127.88;4938168;29;20216;-76
2023/07/05 04:53:28;;;;;;;4.00;2.33;;;;;;;21.16;62.05;99131.84;4939471;29;20256;-77
2023/07/05 04:55:56;;;;;;;2.63;2.30;;;;;;;21.20;61.97;99140.34;4937217;29;20480;-76
2023/07/05 04:58:22;;;;;;;1.70;1.60;;;;;;;21.21;61.95;99128.66;4939209;29;20500;-77
2023/07/05 05:00:51;;;;;;;3.23;1.70;;;;;;;21.24;61.78;99130.94;4937170;29;21073;-77
2023/07/05 05:03:19;;;;;;;2.90;2.00;;;;;;;21.25;61.77;99135.28;4938832;29;20778;-76
2023/07/05 05:05:47;;;;;;;2.97;1.93;;;;;;;21.27;61.54;99135.13;4937359;29;21123;-76
2023/07/05 05:08:13;;;;;;;4.10;1.80;;;;;;;21.28;61.66;99142.09;4938710;29;20581;-77
2023/07/05 05:10:38;;;;;;;3.57;1.60;;;;;;;21.27;61.56;99151.97;4939138;29;20941;-77
2023/07/05 05:13:05;;;;;;;2.33;1.93;;;;;;;21.27;61.95;99151.97;4939901;29;20792;-77
2023/07/05 05:15:39;;;;;;;3.17;2.20;;;;;;;21.29;61.80;99149.13;4938692;29;20220;-76
2023/07/05 05:18:08;;;;;;;2.67;2.07;;;;;;;21.30;61.70;99159.63;4938905;29;20570;-76
2023/07/05 05:20:37;;;;;;;2.00;1.70;;;;;;;21.33;61.50;99153.94;4937878;29;20467;-77
2023/07/05 05:23:02;;;;;;;3.37;2.20;;;;;;;21.36;61.55;99150.91;4939091;29;20719;-76
2023/07/05 05:25:27;;;;;;;1.87;1.70;;;;;;;21.37;61.64;99163.28;4940347;29;21070;-76
2023/07/05 05:27:53;;;;;;;2.90;1.63;;;;;;;21.36;61.94;99166.94;4941622;29;20266;-77
2023/07/05 05:30:19;;;;;;;3.53;1.73;;;;;;;21.33;62.41;99164.63;4940996;28;20450;-77
2023/07/05 05:32:48;;;;;;;2.90;1.90;;;;;;;21.30;62.66;99172.97;4939514;29;20331;-77
2023/07/05 05:35:15;;;;;;;2.07;1.87;;;;;;;21.26;62.80;99160.19;4937724;29;20220;-79
2023/07/05 05:37:40;;;;;;;1.70;1.27;;;;;;;21.25;62.99;99158.50;4935911;29;20472;-78
2023/07/05 05:40:07;;;;;;;1.93;1.83;;;;;;;21.27;63.08;99164.50;4936180;29;20493;-81
2023/07/05 05:42:33;;;;;;;2.83;1.73;;;;;;;21.23;63.05;99161.34;4936080;29;20234;-77
2023/07/05 05:44:58;;;;;;;2.33;1.53;;;;;;;21.20;63.21;99167.06;4938092;29;20538;-79
2023/07/05 05:47:24;;;;;;;4.80;1.70;;;;;;;21.19;62.89;99178.72;4937017;29;20229;-77
2023/07/05 05:49:49;;;;;;;4.83;1.57;;;;;;;21.18;63.06;99182.41;4937836;29;20500;-78
2023/07/05 05:52:15;;;;;;;2.60;1.53;;;;;;;21.12;63.13;99178.63;4937322;29;20279;-79
2023/07/05 05:54:40;;;;;;;2.57;1.40;;;;;;;21.10;62.82;99179.81;4936997;29;20223;-82
2023/07/05 05:57:06;;;;;;;3.60;1.50;;;;;;;21.06;62.89;99173.13;4937494;29;20637;-77
2023/07/05 05:59:32;;;;;;;2.40;1.77;;;;;;;21.05;62.93;99182.16;4939897;29;20250;-77
2023/07/05 06:01:57;;;;;;;3.70;1.57;;;;;;;21.03;63.03;99187.66;4940049;29;20323;-77
2023/07/05 06:04:23;;;;;;;1.83;1.40;;;;;;;21.03;63.15;99192.19;4940011;29;20924;-76
2023/07/05 06:06:49;;;;;;;2.75;1.95;;;;;;;21.07;63.60;99193.50;4937702;29;20503;-76
2023/07/05 06:09:14;;;;;;;1.90;1.47;;;;;;;21.07;63.79;99197.00;4939794;29;20435;-76
2023/07/05 06:11:40;;;;;;;2.40;1.53;;;;;;;21.10;63.55;99193.16;4940276;29;20232;-77
2023/07/05 06:14:07;;;;;;;2.70;2.00;;;;;;;21.09;63.48;99203.00;4939169;29;20236;-76
2023/07/05 06:16:33;;;;;;;4.60;1.93;;;;;;;21.05;63.66;99207.03;4940027;29;20451;-77
2023/07/05 06:18:58;;;;;;;1.40;1.30;;;;;;;21.06;63.67;99214.00;4921836;29;20518;-76
2023/07/05 06:21:24;;;;;;;3.77;1.57;;;;;;;21.04;64.17;99215.22;4938504;29;20231;-77
2023/07/05 06:23:50;;;;;;;3.53;1.90;;;;;;;21.02;64.71;99212.72;4937269;29;20225;-77
2023/07/05 06:26:17;;;;;;;4.00;1.63;;;;;;;20.96;65.12;99232.94;4936656;29;20275;-77
2023/07/05 06:28:43;;;;;;;2.87;1.57;;;;;;;20.89;65.69;99228.47;4938329;29;20479;-75
2023/07/05 06:31:10;;;;;;;3.87;1.90;;;;;;;20.81;66.37;99240.00;4937317;29;20784;-75
2023/07/05 06:33:36;;;;;;;2.80;2.10;;;;;;;20.74;66.91;99244.38;4938382;29;20683;-75
2023/07/05 06:36:01;;;;;;;1.80;1.50;;;;;;;20.68;67.12;99240.53;4938041;29;20465;-76
2023/07/05 06:38:28;;;;;;;2.33;1.53;;;;;;;20.64;67.53;99235.72;4937969;29;20953;-77
2023/07/05 06:40:53;;;;;;;2.80;2.07;;;;;;;20.61;67.67;99236.91;4936642;28;20228;-77
2023/07/05 06:43:20;;;;;;;2.70;1.93;;;;;;;20.61;67.92;99238.75;4936137;29;21124;-77
2023/07/05 06:45:48;;;;;;;3.67;1.77;;;;;;;20.62;68.05;99245.72;4935187;29;20223;-77
2023/07/05 06:48:13;;;;;;;2.20;1.73;;;;;;;20.62;68.28;99261.75;4937172;29;20934;-76
2023/07/05 06:50:39;;;;;;;4.60;2.03;;;;;;;20.61;68.04;99268.91;4940482;29;20499;-77
2023/07/05 06:53:04;;;;;;;2.30;1.80;;;;;;;20.61;68.25;99270.75;4938354;29;20232;-77
2023/07/05 06:55:30;;;;;;;7.73;2.90;;;;;;;20.55;68.37;99269.63;4938513;29;20225;-78
2023/07/05 06:57:55;;;;;;;2.47;1.90;;;;;;;20.47;68.51;99281.09;4937617;29;20682;-77
2023/07/05 07:00:20;;;;;;;5.13;1.77;;;;;;;20.39;69.13;99290.91;4936748;29;20584;-76
2023/07/05 07:02:46;;;;;;;3.47;1.77;;;;;;;20.31;69.19;99297.13;4934946;29;20249;-76
2023/07/05 07:05:11;;;;;;;2.60;1.90;;;;;;;20.23;69.45;99291.78;4934489;29;20474;-77
2023/07/05 07:07:37;;;;;;;2.17;1.80;;;;;;;20.16;69.91;99307.63;4936387;29;20915;-78
2023/07/05 07:10:03;;;;;;;2.67;1.90;;;;;;;20.08;69.88;99319.09;4936906;29;20336;-77
2023/07/05 07:12:28;;;;;;;3.07;1.80;;;;;;;20.02;70.21;99306.44;4915588;29;20231;-75
2023/07/05 07:14:54;;;;;;;3.57;1.77;;;;;;;19.97;70.18;99322.09;4937006;29;20228;-75
2023/07/05 07:17:19;;;;;;;3.27;1.50;;;;;;;19.93;70.44;99312.78;4935904;29;20429;-75
2023/07/05 07:19:45;;;;;;;1.90;1.60;;;;;;;19.92;70.70;99328.94;4929375;29;20234;-77
2023/07/05 07:22:11;;;;;;;2.30;1.50;;;;;;;19.87;70.54;99318.75;4929060;29;21118;-76
2023/07/05 07:24:37;;;;;;;4.73;1.80;;;;;;;19.83;70.58;99326.25;4933062;29;20336;-77
2023/07/05 07:27:03;;;;;;;1.83;1.57;;;;;;;19.84;70.66;99327.91;4934027;29;20474;-78
2023/07/05 07:29:29;;;;;;;2.17;1.33;;;;;;;19.88;70.81;99339.91;4931214;29;20630;-76
2023/07/05 07:31:54;;;;;;;2.43;1.33;;;;;;;19.96;70.63;99340.94;4931354;29;20502;-78
2023/07/05 07:34:20;;;;;;;2.17;2.00;;;;;;;20.04;70.60;99339.13;4961436;23;20607;-77
2023/07/05 07:36:45;;;;;;;2.27;1.77;;;;;;;20.16;70.60;99341.44;4907922;29;21005;-77
2023/07/05 07:39:10;;;;;;;2.27;1.67;;;;;;;20.24;70.68;99341.47;4923423;29;20616;-77
2023/07/05 07:41:38;;;;;;;2.30;1.47;;;;;;;20.31;70.39;99343.28;4926331;29;20332;-77
2023/07/05 07:44:07;;;;;;;2.13;1.40;;;;;;;20.42;69.93;99344.78;4917058;29;20227;-77
2023/07/05 07:46:34;;;;;;;3.37;1.90;;;;;;;20.55;69.47;99349.66;4914216;29;20491;-77
2023/07/05 07:49:01;;;;;;;2.43;1.40;;;;;;;20.98;68.36;99344.88;4911013;29;20521;-77
2023/07/05 07:51:30;;;;;;;1.40;1.13;;;;;;;21.85;65.95;99340.38;4911441;29;20837;-77
2023/07/05 07:53:56;;;;;;;2.37;1.67;;;;;;;22.77;63.25;99336.81;4913947;29;20482;-77
2023/07/05 07:56:23;;;;;;;2.00;1.80;;;;;;;23.52;60.99;99332.28;4917029;29;20482;-78
2023/07/05 07:58:51;;;;;;;2.80;1.30;;;;;;;24.08;59.32;99338.69;4914706;29;20237;-77
2023/07/05 08:01:24;;;;;;;1.40;1.20;;;;;;;24.35;58.27;99336.25;4914802;29;20629;-77
2023/07/05 08:03:50;;;;;;;1.73;1.43;;;;;;;24.48;57.46;99339.09;4913671;29;20667;-77
2023/07/05 08:06:16;;;;;;;1.10;0.90;;;;;;;24.37;57.64;99334.22;4892839;29;20565;-77
2023/07/05 08:08:42;;;;;;;1.60;1.50;;;;;;;24.32;57.92;99342.00;4915155;29;20487;-77
2023/07/05 08:11:09;;;;;;;1.80;1.30;;;;;;;24.22;57.99;99338.81;4916744;29;20853;-77
2023/07/05 08:13:36;;;;;;;1.40;1.20;;;;;;;23.96;58.53;99339.41;4913455;29;20219;-77
2023/07/05 08:16:02;;;;;;;2.43;1.33;;;;;;;23.69;59.20;99352.50;4915833;29;20490;-78
2023/07/05 08:18:28;;;;;;;2.30;1.40;;;;;;;23.37;59.60;99359.94;4914722;29;20503;-77
2023/07/05 08:20:54;;;;;;;3.20;1.70;;;;;;;23.11;60.40;99355.03;4915203;29;20231;-78
2023/07/05 08:23:20;;;;;;;2.70;1.20;;;;;;;22.88;60.92;99359.63;4916185;29;20490;-77
2023/07/05 08:25:54;;;;;;;1.33;1.00;;;;;;;22.63;61.36;99359.03;4915038;29;20650;-77
2023/07/05 08:28:24;;;;;;;2.77;1.43;;;;;;;22.43;61.76;99367.56;4916683;29;20444;-77
2023/07/05 08:30:58;;;;;;;1.67;1.27;;;;;;;22.31;62.20;99363.66;4911221;29;20562;-77
2023/07/05 08:33:24;;;;;;;1.30;1.20;;;;;;;22.25;62.08;99362.53;4917109;29;20464;-77
2023/07/05 08:36:05;;;;;;;1.83;1.73;;;;;;;22.23;62.12;99361.88;4932044;29;20476;-77
2023/07/05 08:38:31;;;;;;;4.20;1.10;;;;;;;22.23;62.24;99372.56;4933748;29;20508;-77
2023/07/05 08:41:09;;;;;;;1.07;0.97;;;;;;;22.21;61.96;99363.06;4930924;29;20626;-78
2023/07/05 08:43:41;;;;;;;2.23;1.40;;;;;;;22.19;62.33;99365.06;4933928;29;20229;-77
2023/07/05 08:46:12;;;;;;;2.57;1.40;;;;;;;22.18;62.34;99369.59;4934545;29;20485;-77
2023/07/05 08:48:37;;;;;;;1.87;1.40;;;;;;;22.20;62.22;99375.63;4933618;29;20518;-77
2023/07/05 08:51:05;;;;;;;3.20;1.20;;;;;;;22.23;62.17;99380.59;4932578;29;21066;-77
2023/07/05 08:53:36;;;;;;;1.90;1.10;;;;;;;22.29;62.15;99387.09;4934867;29;20210;-77
2023/07/05 08:56:15;;;;;;;1.27;1.17;;;;;;;22.31;61.83;99383.22;4932924;29;20447;-77
2023/07/05 08:58:46;;;;;;;1.93;1.43;;;;;;;22.33;61.58;99371.50;4933451;29;20500;-77
2023/07/05 09:01:19;;;;;;;1.17;0.90;;;;;;;22.30;61.28;99389.59;4934266;29;21114;-77
2023/07/05 09:03:44;;;;;;;5.73;1.70;;;;;;;22.28;61.12;99386.25;4933762;28;20549;-77
2023/07/05 09:06:27;;;;;;;2.60;1.40;;;;;;;22.30;60.83;99392.28;4911456;29;20961;-77
2023/07/05 09:09:11;;;;;;;3.10;1.50;;;;;;;22.31;60.15;99391.25;4933364;29;20647;-77
2023/07/05 09:11:55;;;;;;;1.77;1.47;;;;;;;22.37;59.42;99392.38;4933460;29;20503;-77
2023/07/05 09:14:44;;;;;;;3.00;2.13;;;;;;;22.46;58.01;99390.47;4933338;29;20473;-77
2023/07/05 09:17:45;;;;;;;3.00;2.30;;;;;;;22.54;57.48;99398.41;4933188;29;20442;-77
2023/07/05 09:20:44;;;;;;;3.07;2.07;;;;;;;22.64;55.83;99392.81;4931115;29;21027;-77
2023/07/05 09:23:16;;;;;;;2.50;1.57;;;;;;;22.76;55.96;99394.03;4931406;29;20467;-78
2023/07/05 09:25:44;;;;;;;2.67;1.40;;;;;;;23.05;54.88;99395.16;4932721;29;20513;-77
2023/07/05 09:28:23;;;;;;;2.23;1.57;;;;;;;23.47;53.57;99394.50;4916679;29;20564;-77
2023/07/05 09:30:48;;;;;;;1.73;1.33;;;;;;;;;;4930792;29;20487;-78
2023/07/05 09:33:21;;;;;;;2.20;1.63;;;;;;;23.90;51.38;99388.44;4933713;29;20553;-77
2023/07/05 09:35:47;;;;;;;2.22;1.60;;;;;;;23.93;50.82;99396.13;4932406;29;20476;-78
2023/07/05 09:38:38;;;;;;;3.20;1.93;;;;;;;23.96;50.07;99387.69;4931222;29;20281;-77
2023/07/05 09:41:46;;;;;;;2.30;1.83;;;;;;;24.11;48.78;99403.75;4931213;29;21044;-77
2023/07/05 09:44:11;;;;;;;3.23;1.90;;;;;;;24.20;48.47;99397.25;4932624;29;20513;-78
2023/07/05 09:46:38;;;;;;;2.60;1.83;;;;;;;24.43;47.84;99394.34;4932134;29;20524;-79
2023/07/05 09:49:11;;;;;;;3.33;1.90;;;;;;;24.76;46.99;99391.97;4932457;29;20218;-77
2023/07/05 09:51:41;;;;;;;3.20;1.93;;;;;;;24.97;45.91;99396.47;4931917;29;20457;-77
2023/07/05 09:54:16;;;;;;;3.00;1.70;;;;;;;25.32;44.96;99408.09;4933376;29;20491;-78
2023/07/05 09:57:22;;;;;;;5.70;2.30;;;;;;;25.71;43.72;99401.28;4932448;29;20485;-77
2023/07/05 09:59:47;;;;;;;3.60;3.30;;;;;;;26.06;40.92;99403.91;4913614;29;20852;-77
2023/07/05 10:02:20;;;;;;;5.60;3.00;;;;;;;26.22;38.21;99395.47;4934321;29;21094;-78
2023/07/05 10:04:52;;;;;;;4.67;3.50;;;;;;;26.20;38.25;99400.22;4930334;29;20579;-77
2023/07/05 10:07:21;;;;;;;5.60;3.47;;;;;;;26.18;38.70;99402.28;4932700;29;20482;-77
2023/07/05 10:09:57;;;;;;;4.93;3.07;;;;;;;26.31;38.16;99397.97;4932876;29;20962;-77
2023/07/05 10:12:30;;;;;;;5.70;2.97;;;;;;;26.35;38.19;99401.88;4932350;29;20540;-78
2023/07/05 10:14:56;;;;;;;4.70;2.57;;;;;;;26.52;38.47;99405.88;4931387;29;20891;-78
2023/07/05 10:17:23;;;;;;;4.77;2.97;;;;;;;26.62;38.31;99408.97;4933048;28;21193;-78
2023/07/05 10:19:51;;;;;;;4.23;2.60;;;;;;;26.62;38.77;99402.78;4931513;29;20238;-79
2023/07/05 10:22:27;;;;;;;4.20;2.60;;;;;;;26.41;38.69;99410.00;4930167;29;20981;-78
2023/07/05 10:24:57;;;;;;;4.50;3.00;;;;;;;26.27;39.11;99421.75;4933889;29;20485;-77
2023/07/05 10:27:37;;;;;;;4.50;3.33;;;;;;;26.31;38.62;99422.19;4932494;29;20472;-77
2023/07/05 10:30:15;;;;;;;4.67;3.77;;;;;;;26.44;37.57;99420.34;4929775;29;20839;-78
2023/07/05 10:32:42;;;;;;;5.40;3.20;;;;;;;26.55;37.65;99432.41;4930485;29;20477;-78
2023/07/05 10:35:22;;;;;;;4.13;3.60;;;;;;;26.56;36.99;99423.28;4933985;29;20490;-78
2023/07/05 10:37:48;;;;;;;7.07;3.30;;;;;;;26.45;36.78;99418.47;4932178;29;20491;-78
2023/07/05 10:40:14;;;;;;;5.33;3.20;;;;;;;26.25;37.04;99411.19;4931144;29;20540;-78
2023/07/05 10:42:48;;;;;;;3.93;3.07;;;;;;;26.23;36.70;99418.66;4932089;29;20786;-78
2023/07/05 10:45:17;;;;;;;5.37;3.47;;;;;;;26.31;36.67;99416.81;4931894;29;20477;-78
2023/07/05 10:47:46;;;;;;;4.53;3.23;;;;;;;26.40;36.28;99423.66;4930035;29;20567;-78
2023/07/05 10:50:14;;;;;;;5.40;3.70;;;;;;;26.45;34.38;99418.47;4931541;29;20485;-78
2023/07/05 10:52:49;;;;;;;4.10;3.50;;;;;;;26.45;34.23;99423.88;4931282;29;20490;-78
2023/07/05 10:55:19;;;;;;;3.80;3.27;;;;;;;26.52;33.67;99413.97;4928326;29;20500;-78
2023/07/05 10:58:05;;;;;;;4.53;2.67;;;;;;;26.56;33.44;99428.66;4930437;29;20476;-78
2023/07/05 11:00:38;;;;;;;6.53;2.90;;;;;;;26.62;32.76;99424.31;4932385;29;20488;-78
2023/07/05 11:03:15;;;;;;;3.23;2.57;;;;;;;26.72;32.26;99423.91;4931435;29;20473;-78
2023/07/05 11:05:49;;;;;;;5.40;3.17;;;;;;;26.79;31.46;99420.19;4930370;29;20504;-78
2023/07/05 11:08:25;;;;;;;4.10;2.40;;;;;;;26.84;30.80;99419.56;4930279;29;20472;-78
2023/07/05 11:10:52;;;;;;;4.37;2.30;;;;;;;26.81;29.85;99409.19;4932045;29;20466;-78
2023/07/05 11:13:18;;;;;;;4.03;2.60;;;;;;;26.67;29.43;99411.88;4931975;29;20485;-78
2023/07/05 11:15:45;;;;;;;2.70;2.20;;;;;;;26.64;29.30;99406.09;4932898;29;20835;-78
2023/07/05 11:18:17;;;;;;;3.60;2.37;;;;;;;26.61;29.45;99418.09;4933032;29;21097;-78
2023/07/05 11:20:44;;;;;;;3.93;2.23;;;;;;;26.66;29.00;99425.59;4932003;29;20532;-78
2023/07/05 11:23:11;;;;;;;4.50;2.40;;;;;;;26.74;29.31;99421.84;4934302;29;20531;-78
2023/07/05 11:25:54;;;;;;;3.93;1.93;;;;;;;26.86;28.87;99418.31;4931814;29;20477;-78
2023/07/05 11:28:39;;;;;;;2.20;1.97;;;;;;;26.96;28.86;99423.28;4931490;28;20541;-78
2023/07/05 11:31:09;;;;;;;2.30;1.60;;;;;;;27.01;28.22;99406.50;4934299;29;20481;-78
2023/07/05 11:33:35;;;;;;;2.87;2.07;;;;;;;26.97;27.80;99413.34;4934550;29;21035;-78
2023/07/05 11:36:08;;;;;;;3.57;2.40;;;;;;;26.89;27.79;99420.59;4936470;29;20680;-78
2023/07/05 11:38:37;;;;;;;2.53;2.00;;;;;;;26.77;27.73;99411.47;4932146;29;20497;-79
2023/07/05 11:41:09;;;;;;;2.27;1.80;;;;;;;26.76;27.72;99417.91;4935254;29;21184;-78
2023/07/05 11:43:44;;;;;;;2.93;2.67;;;;;;;26.79;28.46;99419.34;4930390;29;20493;-78